sensor_id;sensor_type;location;lat;lon;timestamp;pressure;altitude;pressure_sealevel;temperature
82638;BMP280;72318;36.628;-121.932;2023-10-19T00:00:37;101072.88;;;21.89
82638;BMP280;72318;36.628;-121.932;2023-10-19T00:03:09;101070.84;;;21.19
82638;BMP280;72318;36.628;-121.932;2023-10-19T00:05:36;101079.13;;;20.99
82638;BMP280;72318;36.628;-121.932;2023-10-19T00:08:03;101079.34;;;21.05
82638;BMP280;72318;36.628;-121.932;2023-10-19T00:10:42;101073.22;;;21.01
82638;BMP280;72318;36.628;-121.932;2023-10-19T00:13:10;101060.94;;;21.41
82638;BMP280;72318;36.628;-121.932;2023-10-19T00:15:42;101066.03;;;21.39
82638;BMP280;72318;36.628;-121.932;2023-10-19T00:18:17;101077.25;;;21.12
82638;BMP280;72318;36.628;-121.932;2023-10-19T00:20:46;101078.25;;;21.18
82638;BMP280;72318;36.628;-121.932;2023-10-19T00:23:22;101080.16;;;21.34
82638;BMP280;72318;36.628;-121.932;2023-10-19T00:26:06;101081.88;;;21.44
82638;BMP280;72318;36.628;-121.932;2023-10-19T00:28:45;101081.47;;;21.87
82638;BMP280;72318;36.628;-121.932;2023-10-19T00:31:14;101080.25;;;22.43
82638;BMP280;72318;36.628;-121.932;2023-10-19T00:33:40;101084.63;;;21.73
82638;BMP280;72318;36.628;-121.932;2023-10-19T00:36:10;101081.94;;;21.99
82638;BMP280;72318;36.628;-121.932;2023-10-19T00:38:40;101082.16;;;21.91
82638;BMP280;72318;36.628;-121.932;2023-10-19T00:41:26;101082.63;;;21.74
82638;BMP280;72318;36.628;-121.932;2023-10-19T00:43:57;101084.06;;;21.04
82638;BMP280;72318;36.628;-121.932;2023-10-19T00:46:29;101081.44;;;21.30
82638;BMP280;72318;36.628;-121.932;2023-10-19T00:49:01;101088.91;;;21.87
82638;BMP280;72318;36.628;-121.932;2023-10-19T00:51:52;101084.50;;;22.56
82638;BMP280;72318;36.628;-121.932;2023-10-19T00:54:23;101088.28;;;22.72
82638;BMP280;72318;36.628;-121.932;2023-10-19T00:57:07;101084.72;;;23.09
82638;BMP280;72318;36.628;-121.932;2023-10-19T00:59:42;101081.81;;;22.91
82638;BMP280;72318;36.628;-121.932;2023-10-19T01:02:09;101083.13;;;23.33
82638;BMP280;72318;36.628;-121.932;2023-10-19T01:04:52;101087.56;;;22.58
82638;BMP280;72318;36.628;-121.932;2023-10-19T01:07:23;101094.09;;;23.21
82638;BMP280;72318;36.628;-121.932;2023-10-19T01:10:02;101089.28;;;22.78
82638;BMP280;72318;36.628;-121.932;2023-10-19T01:12:31;101093.91;;;23.15
82638;BMP280;72318;36.628;-121.932;2023-10-19T01:15:05;101097.72;;;22.71
82638;BMP280;72318;36.628;-121.932;2023-10-19T01:17:52;101091.75;;;22.97
82638;BMP280;72318;36.628;-121.932;2023-10-19T01:20:24;101093.94;;;23.03
82638;BMP280;72318;36.628;-121.932;2023-10-19T01:23:16;101091.38;;;22.61
82638;BMP280;72318;36.628;-121.932;2023-10-19T01:26:01;101089.84;;;22.35
82638;BMP280;72318;36.628;-121.932;2023-10-19T01:28:35;101088.31;;;21.79
82638;BMP280;72318;36.628;-121.932;2023-10-19T01:31:12;101086.59;;;21.27
82638;BMP280;72318;36.628;-121.932;2023-10-19T01:33:43;101097.94;;;21.84
82638;BMP280;72318;36.628;-121.932;2023-10-19T01:36:11;101093.00;;;22.46
82638;BMP280;72318;36.628;-121.932;2023-10-19T01:38:41;101101.09;;;21.82
82638;BMP280;72318;36.628;-121.932;2023-10-19T01:41:08;101096.41;;;21.54
82638;BMP280;72318;36.628;-121.932;2023-10-19T01:43:50;101102.56;;;21.42
82638;BMP280;72318;36.628;-121.932;2023-10-19T01:46:29;101103.97;;;21.91
82638;BMP280;72318;36.628;-121.932;2023-10-19T01:49:04;101105.50;;;21.18
82638;BMP280;72318;36.628;-121.932;2023-10-19T01:51:33;101102.25;;;20.58
82638;BMP280;72318;36.628;-121.932;2023-10-19T01:54:04;101100.81;;;20.34
82638;BMP280;72318;36.628;-121.932;2023-10-19T01:56:30;101100.97;;;20.07
82638;BMP280;72318;36.628;-121.932;2023-10-19T01:58:59;101110.59;;;21.90
82638;BMP280;72318;36.628;-121.932;2023-10-19T02:01:25;101105.09;;;22.83
82638;BMP280;72318;36.628;-121.932;2023-10-19T02:03:52;101108.09;;;22.38
82638;BMP280;72318;36.628;-121.932;2023-10-19T02:06:21;101105.09;;;23.08
82638;BMP280;72318;36.628;-121.932;2023-10-19T02:09:01;101103.06;;;22.74
82638;BMP280;72318;36.628;-121.932;2023-10-19T02:11:48;101106.09;;;22.63
82638;BMP280;72318;36.628;-121.932;2023-10-19T02:14:16;101096.19;;;22.19
82638;BMP280;72318;36.628;-121.932;2023-10-19T02:16:47;101102.88;;;22.43
82638;BMP280;72318;36.628;-121.932;2023-10-19T02:19:14;101102.53;;;22.54
82638;BMP280;72318;36.628;-121.932;2023-10-19T02:21:40;101098.75;;;22.98
82638;BMP280;72318;36.628;-121.932;2023-10-19T02:24:07;101098.47;;;22.84
82638;BMP280;72318;36.628;-121.932;2023-10-19T02:26:34;101099.66;;;22.45
82638;BMP280;72318;36.628;-121.932;2023-10-19T02:29:02;101095.28;;;22.60
82638;BMP280;72318;36.628;-121.932;2023-10-19T02:31:42;101105.19;;;22.03
82638;BMP280;72318;36.628;-121.932;2023-10-19T02:34:11;101104.59;;;22.24
82638;BMP280;72318;36.628;-121.932;2023-10-19T02:36:42;101100.66;;;22.76
82638;BMP280;72318;36.628;-121.932;2023-10-19T02:39:11;101102.16;;;22.64
82638;BMP280;72318;36.628;-121.932;2023-10-19T02:41:42;101102.00;;;23.06
82638;BMP280;72318;36.628;-121.932;2023-10-19T02:44:12;101109.84;;;21.77
82638;BMP280;72318;36.628;-121.932;2023-10-19T02:46:48;101126.94;;;20.12
82638;BMP280;72318;36.628;-121.932;2023-10-19T02:49:22;101121.66;;;20.41
82638;BMP280;72318;36.628;-121.932;2023-10-19T02:51:48;101119.94;;;20.11
82638;BMP280;72318;36.628;-121.932;2023-10-19T02:54:20;101122.47;;;20.02
82638;BMP280;72318;36.628;-121.932;2023-10-19T02:56:52;101124.72;;;19.83
82638;BMP280;72318;36.628;-121.932;2023-10-19T02:59:20;101129.28;;;19.90
82638;BMP280;72318;36.628;-121.932;2023-10-19T03:01:50;101122.38;;;19.62
82638;BMP280;72318;36.628;-121.932;2023-10-19T03:04:18;101122.19;;;19.26
82638;BMP280;72318;36.628;-121.932;2023-10-19T03:06:44;101117.38;;;19.37
82638;BMP280;72318;36.628;-121.932;2023-10-19T03:09:11;101118.25;;;19.31
82638;BMP280;72318;36.628;-121.932;2023-10-19T03:11:54;101116.91;;;19.15
82638;BMP280;72318;36.628;-121.932;2023-10-19T03:14:32;101121.09;;;19.47
82638;BMP280;72318;36.628;-121.932;2023-10-19T03:16:58;101117.16;;;19.28
82638;BMP280;72318;36.628;-121.932;2023-10-19T03:19:29;101115.88;;;18.82
82638;BMP280;72318;36.628;-121.932;2023-10-19T03:21:56;101121.06;;;19.00
82638;BMP280;72318;36.628;-121.932;2023-10-19T03:24:26;101123.31;;;19.52
82638;BMP280;72318;36.628;-121.932;2023-10-19T03:27:02;101115.91;;;19.33
82638;BMP280;72318;36.628;-121.932;2023-10-19T03:29:39;101130.50;;;19.15
82638;BMP280;72318;36.628;-121.932;2023-10-19T03:32:06;101134.53;;;19.31
82638;BMP280;72318;36.628;-121.932;2023-10-19T03:34:35;101135.72;;;19.03
82638;BMP280;72318;36.628;-121.932;2023-10-19T03:37:01;101136.09;;;19.32
82638;BMP280;72318;36.628;-121.932;2023-10-19T03:39:38;101136.78;;;19.12
82638;BMP280;72318;36.628;-121.932;2023-10-19T03:42:05;101139.88;;;19.14
82638;BMP280;72318;36.628;-121.932;2023-10-19T03:44:34;101140.25;;;18.86
82638;BMP280;72318;36.628;-121.932;2023-10-19T03:47:09;101145.31;;;18.84
82638;BMP280;72318;36.628;-121.932;2023-10-19T03:49:40;101146.09;;;18.54
82638;BMP280;72318;36.628;-121.932;2023-10-19T03:52:08;101151.50;;;18.57
82638;BMP280;72318;36.628;-121.932;2023-10-19T03:54:34;101140.69;;;18.54
82638;BMP280;72318;36.628;-121.932;2023-10-19T03:57:07;101149.59;;;18.54
82638;BMP280;72318;36.628;-121.932;2023-10-19T03:59:54;101152.13;;;18.65
82638;BMP280;72318;36.628;-121.932;2023-10-19T04:02:24;101154.56;;;18.59
82638;BMP280;72318;36.628;-121.932;2023-10-19T04:04:50;101155.19;;;18.71
82638;BMP280;72318;36.628;-121.932;2023-10-19T04:07:18;101152.13;;;18.65
82638;BMP280;72318;36.628;-121.932;2023-10-19T04:09:52;101151.69;;;18.70
82638;BMP280;72318;36.628;-121.932;2023-10-19T04:12:37;101156.97;;;18.54
82638;BMP280;72318;36.628;-121.932;2023-10-19T04:15:06;101154.28;;;18.47
82638;BMP280;72318;36.628;-121.932;2023-10-19T04:17:42;101162.44;;;18.47
82638;BMP280;72318;36.628;-121.932;2023-10-19T04:20:09;101163.38;;;18.67
82638;BMP280;72318;36.628;-121.932;2023-10-19T04:22:49;101160.09;;;18.79
82638;BMP280;72318;36.628;-121.932;2023-10-19T04:25:17;101165.94;;;18.81
82638;BMP280;72318;36.628;-121.932;2023-10-19T04:28:02;101164.00;;;19.09
82638;BMP280;72318;36.628;-121.932;2023-10-19T04:30:29;101162.84;;;19.06
82638;BMP280;72318;36.628;-121.932;2023-10-19T04:32:59;101167.28;;;19.23
82638;BMP280;72318;36.628;-121.932;2023-10-19T04:35:27;101161.94;;;18.89
82638;BMP280;72318;36.628;-121.932;2023-10-19T04:37:58;101174.28;;;18.64
82638;BMP280;72318;36.628;-121.932;2023-10-19T04:40:25;101165.81;;;19.15
82638;BMP280;72318;36.628;-121.932;2023-10-19T04:42:54;101167.22;;;18.70
82638;BMP280;72318;36.628;-121.932;2023-10-19T04:45:21;101162.81;;;18.79
82638;BMP280;72318;36.628;-121.932;2023-10-19T04:47:51;101164.59;;;18.93
82638;BMP280;72318;36.628;-121.932;2023-10-19T04:50:21;101158.09;;;19.14
82638;BMP280;72318;36.628;-121.932;2023-10-19T04:52:47;101174.84;;;20.06
82638;BMP280;72318;36.628;-121.932;2023-10-19T04:55:13;101170.44;;;19.92
82638;BMP280;72318;36.628;-121.932;2023-10-19T04:57:40;101170.31;;;20.58
82638;BMP280;72318;36.628;-121.932;2023-10-19T05:00:06;101169.91;;;20.40
82638;BMP280;72318;36.628;-121.932;2023-10-19T05:02:39;101171.81;;;20.59
82638;BMP280;72318;36.628;-121.932;2023-10-19T05:05:05;101170.00;;;20.73
82638;BMP280;72318;36.628;-121.932;2023-10-19T05:07:31;101173.31;;;20.44
82638;BMP280;72318;36.628;-121.932;2023-10-19T05:09:59;101167.19;;;20.76
82638;BMP280;72318;36.628;-121.932;2023-10-19T05:12:25;101168.47;;;20.72
82638;BMP280;72318;36.628;-121.932;2023-10-19T05:14:52;101171.19;;;20.72
82638;BMP280;72318;36.628;-121.932;2023-10-19T05:17:18;101166.56;;;21.21
82638;BMP280;72318;36.628;-121.932;2023-10-19T05:19:46;101161.50;;;20.87
82638;BMP280;72318;36.628;-121.932;2023-10-19T05:22:13;101161.91;;;20.33
82638;BMP280;72318;36.628;-121.932;2023-10-19T05:24:39;101164.25;;;20.31
82638;BMP280;72318;36.628;-121.932;2023-10-19T05:27:05;101169.09;;;19.30
82638;BMP280;72318;36.628;-121.932;2023-10-19T05:29:32;101163.84;;;19.19
82638;BMP280;72318;36.628;-121.932;2023-10-19T05:32:01;101172.03;;;19.16
82638;BMP280;72318;36.628;-121.932;2023-10-19T05:34:29;101165.19;;;19.08
82638;BMP280;72318;36.628;-121.932;2023-10-19T05:36:58;101163.69;;;19.03
82638;BMP280;72318;36.628;-121.932;2023-10-19T05:39:31;101161.41;;;18.98
82638;BMP280;72318;36.628;-121.932;2023-10-19T05:41:59;101149.78;;;18.98
82638;BMP280;72318;36.628;-121.932;2023-10-19T05:44:31;101162.56;;;18.70
82638;BMP280;72318;36.628;-121.932;2023-10-19T05:46:58;101159.72;;;18.81
82638;BMP280;72318;36.628;-121.932;2023-10-19T05:49:24;101158.00;;;18.64
82638;BMP280;72318;36.628;-121.932;2023-10-19T05:51:50;101158.59;;;18.48
82638;BMP280;72318;36.628;-121.932;2023-10-19T05:54:17;101161.66;;;18.50
82638;BMP280;72318;36.628;-121.932;2023-10-19T05:56:43;101162.22;;;18.68
82638;BMP280;72318;36.628;-121.932;2023-10-19T05:59:09;101152.41;;;18.78
82638;BMP280;72318;36.628;-121.932;2023-10-19T06:01:36;101151.94;;;18.52
82638;BMP280;72318;36.628;-121.932;2023-10-19T06:04:07;101151.53;;;18.54
82638;BMP280;72318;36.628;-121.932;2023-10-19T06:06:33;101152.28;;;18.54
82638;BMP280;72318;36.628;-121.932;2023-10-19T06:09:00;101149.91;;;18.26
82638;BMP280;72318;36.628;-121.932;2023-10-19T06:11:31;101150.06;;;18.46
82638;BMP280;72318;36.628;-121.932;2023-10-19T06:14:00;101152.13;;;18.35
82638;BMP280;72318;36.628;-121.932;2023-10-19T06:16:27;101144.94;;;18.21
82638;BMP280;72318;36.628;-121.932;2023-10-19T06:18:54;101139.38;;;18.32
82638;BMP280;72318;36.628;-121.932;2023-10-19T06:21:21;101144.81;;;18.28
82638;BMP280;72318;36.628;-121.932;2023-10-19T06:23:48;101141.25;;;18.38
82638;BMP280;72318;36.628;-121.932;2023-10-19T06:26:14;101140.22;;;18.59
82638;BMP280;72318;36.628;-121.932;2023-10-19T06:28:40;101137.00;;;18.68
82638;BMP280;72318;36.628;-121.932;2023-10-19T06:31:07;101135.19;;;18.57
82638;BMP280;72318;36.628;-121.932;2023-10-19T06:33:34;101139.56;;;18.78
82638;BMP280;72318;36.628;-121.932;2023-10-19T06:36:02;101137.63;;;18.79
82638;BMP280;72318;36.628;-121.932;2023-10-19T06:38:32;101133.84;;;18.73
82638;BMP280;72318;36.628;-121.932;2023-10-19T06:40:59;101139.00;;;18.94
82638;BMP280;72318;36.628;-121.932;2023-10-19T06:43:28;101139.88;;;18.84
82638;BMP280;72318;36.628;-121.932;2023-10-19T06:45:56;101131.19;;;18.66
82638;BMP280;72318;36.628;-121.932;2023-10-19T06:48:22;101129.59;;;18.72
82638;BMP280;72318;36.628;-121.932;2023-10-19T06:50:48;101130.31;;;18.76
82638;BMP280;72318;36.628;-121.932;2023-10-19T06:53:15;101129.06;;;18.53
82638;BMP280;72318;36.628;-121.932;2023-10-19T06:55:42;101127.69;;;18.38
82638;BMP280;72318;36.628;-121.932;2023-10-19T06:58:09;101119.75;;;18.51
82638;BMP280;72318;36.628;-121.932;2023-10-19T07:00:35;101128.03;;;18.40
82638;BMP280;72318;36.628;-121.932;2023-10-19T07:03:08;101120.00;;;18.64
82638;BMP280;72318;36.628;-121.932;2023-10-19T07:05:34;101118.63;;;18.48
82638;BMP280;72318;36.628;-121.932;2023-10-19T07:08:01;101116.47;;;18.67
82638;BMP280;72318;36.628;-121.932;2023-10-19T07:10:28;101118.69;;;18.41
82638;BMP280;72318;36.628;-121.932;2023-10-19T07:12:56;101103.63;;;18.71
82638;BMP280;72318;36.628;-121.932;2023-10-19T07:15:23;101108.69;;;18.38
82638;BMP280;72318;36.628;-121.932;2023-10-19T07:17:51;101103.13;;;18.49
82638;BMP280;72318;36.628;-121.932;2023-10-19T07:20:21;101111.31;;;18.45
82638;BMP280;72318;36.628;-121.932;2023-10-19T07:23:03;101103.91;;;18.49
82638;BMP280;72318;36.628;-121.932;2023-10-19T07:25:36;101100.38;;;18.52
82638;BMP280;72318;36.628;-121.932;2023-10-19T07:28:14;101098.59;;;18.39
82638;BMP280;72318;36.628;-121.932;2023-10-19T07:30:42;101095.34;;;18.20
82638;BMP280;72318;36.628;-121.932;2023-10-19T07:33:09;101095.66;;;18.22
82638;BMP280;72318;36.628;-121.932;2023-10-19T07:35:36;101093.50;;;18.44
82638;BMP280;72318;36.628;-121.932;2023-10-19T07:38:08;101086.22;;;18.65
82638;BMP280;72318;36.628;-121.932;2023-10-19T07:40:35;101082.59;;;18.75
82638;BMP280;72318;36.628;-121.932;2023-10-19T07:43:02;101085.88;;;18.63
82638;BMP280;72318;36.628;-121.932;2023-10-19T07:45:30;101082.41;;;18.89
82638;BMP280;72318;36.628;-121.932;2023-10-19T07:48:00;101068.03;;;18.92
82638;BMP280;72318;36.628;-121.932;2023-10-19T07:50:33;101077.94;;;19.02
82638;BMP280;72318;36.628;-121.932;2023-10-19T07:53:00;101070.22;;;19.01
82638;BMP280;72318;36.628;-121.932;2023-10-19T07:55:26;101073.66;;;19.05
82638;BMP280;72318;36.628;-121.932;2023-10-19T07:57:53;101077.03;;;19.12
82638;BMP280;72318;36.628;-121.932;2023-10-19T08:00:20;101078.16;;;19.15
82638;BMP280;72318;36.628;-121.932;2023-10-19T08:02:47;101082.91;;;19.07
82638;BMP280;72318;36.628;-121.932;2023-10-19T08:05:14;101080.72;;;18.99
82638;BMP280;72318;36.628;-121.932;2023-10-19T08:07:41;101090.47;;;18.92
82638;BMP280;72318;36.628;-121.932;2023-10-19T08:10:14;101093.72;;;18.84
82638;BMP280;72318;36.628;-121.932;2023-10-19T08:12:41;101094.16;;;18.82
82638;BMP280;72318;36.628;-121.932;2023-10-19T08:15:09;101100.34;;;18.83
82638;BMP280;72318;36.628;-121.932;2023-10-19T08:17:43;101096.63;;;18.43
82638;BMP280;72318;36.628;-121.932;2023-10-19T08:20:12;101101.84;;;18.23
82638;BMP280;72318;36.628;-121.932;2023-10-19T08:22:57;101099.63;;;18.14
82638;BMP280;72318;36.628;-121.932;2023-10-19T08:25:26;101111.97;;;18.19
82638;BMP280;72318;36.628;-121.932;2023-10-19T08:27:55;101112.97;;;18.02
82638;BMP280;72318;36.628;-121.932;2023-10-19T08:30:25;101104.41;;;18.07
82638;BMP280;72318;36.628;-121.932;2023-10-19T08:32:52;101113.59;;;18.13
82638;BMP280;72318;36.628;-121.932;2023-10-19T08:35:21;101104.25;;;17.80
82638;BMP280;72318;36.628;-121.932;2023-10-19T08:37:51;101110.41;;;17.84
82638;BMP280;72318;36.628;-121.932;2023-10-19T08:40:19;101117.09;;;17.72
82638;BMP280;72318;36.628;-121.932;2023-10-19T08:42:47;101116.75;;;17.67
82638;BMP280;72318;36.628;-121.932;2023-10-19T08:45:14;101112.34;;;17.87
82638;BMP280;72318;36.628;-121.932;2023-10-19T08:47:56;101106.22;;;17.76
82638;BMP280;72318;36.628;-121.932;2023-10-19T08:50:27;101110.91;;;17.72
82638;BMP280;72318;36.628;-121.932;2023-10-19T08:52:56;101103.47;;;17.79
82638;BMP280;72318;36.628;-121.932;2023-10-19T08:55:23;101107.59;;;17.94
82638;BMP280;72318;36.628;-121.932;2023-10-19T08:57:50;101101.41;;;17.94
82638;BMP280;72318;36.628;-121.932;2023-10-19T09:00:18;101106.13;;;18.24
82638;BMP280;72318;36.628;-121.932;2023-10-19T09:02:47;101111.75;;;18.40
82638;BMP280;72318;36.628;-121.932;2023-10-19T09:05:13;101096.47;;;18.53
82638;BMP280;72318;36.628;-121.932;2023-10-19T09:07:52;101099.25;;;18.50
82638;BMP280;72318;36.628;-121.932;2023-10-19T09:10:27;101097.28;;;18.20
82638;BMP280;72318;36.628;-121.932;2023-10-19T09:13:06;101100.13;;;18.40
82638;BMP280;72318;36.628;-121.932;2023-10-19T09:15:37;101100.16;;;18.06
82638;BMP280;72318;36.628;-121.932;2023-10-19T09:18:21;101100.97;;;18.33
82638;BMP280;72318;36.628;-121.932;2023-10-19T09:20:50;101098.69;;;17.94
82638;BMP280;72318;36.628;-121.932;2023-10-19T09:23:20;101105.13;;;18.11
82638;BMP280;72318;36.628;-121.932;2023-10-19T09:25:50;101097.44;;;18.40
82638;BMP280;72318;36.628;-121.932;2023-10-19T09:28:19;101100.03;;;18.13
82638;BMP280;72318;36.628;-121.932;2023-10-19T09:30:46;101104.25;;;18.17
82638;BMP280;72318;36.628;-121.932;2023-10-19T09:33:13;101114.22;;;18.27
82638;BMP280;72318;36.628;-121.932;2023-10-19T09:35:40;101110.16;;;18.12
82638;BMP280;72318;36.628;-121.932;2023-10-19T09:38:09;101103.25;;;18.69
82638;BMP280;72318;36.628;-121.932;2023-10-19T09:40:36;101108.28;;;18.40
82638;BMP280;72318;36.628;-121.932;2023-10-19T09:43:05;101110.69;;;18.61
82638;BMP280;72318;36.628;-121.932;2023-10-19T09:45:37;101102.81;;;18.43
82638;BMP280;72318;36.628;-121.932;2023-10-19T09:48:08;101109.75;;;19.02
82638;BMP280;72318;36.628;-121.932;2023-10-19T09:50:34;101105.38;;;18.54
82638;BMP280;72318;36.628;-121.932;2023-10-19T09:53:02;101091.38;;;18.86
82638;BMP280;72318;36.628;-121.932;2023-10-19T09:55:33;101096.69;;;18.66
82638;BMP280;72318;36.628;-121.932;2023-10-19T10:00:33;101088.94;;;18.65
82638;BMP280;72318;36.628;-121.932;2023-10-19T10:03:00;101090.50;;;18.35
82638;BMP280;72318;36.628;-121.932;2023-10-19T10:05:46;101089.81;;;18.58
82638;BMP280;72318;36.628;-121.932;2023-10-19T10:10:50;101080.06;;;18.34
82638;BMP280;72318;36.628;-121.932;2023-10-19T10:15:57;101076.31;;;18.24
82638;BMP280;72318;36.628;-121.932;2023-10-19T10:18:29;101083.47;;;17.66
82638;BMP280;72318;36.628;-121.932;2023-10-19T10:21:13;101079.53;;;18.12
82638;BMP280;72318;36.628;-121.932;2023-10-19T10:23:49;101076.38;;;17.83
82638;BMP280;72318;36.628;-121.932;2023-10-19T10:26:17;101078.22;;;17.45
82638;BMP280;72318;36.628;-121.932;2023-10-19T10:28:48;101074.44;;;17.83
82638;BMP280;72318;36.628;-121.932;2023-10-19T10:31:21;101073.41;;;18.04
82638;BMP280;72318;36.628;-121.932;2023-10-19T10:33:53;101072.38;;;17.53
82638;BMP280;72318;36.628;-121.932;2023-10-19T10:36:22;101076.06;;;17.70
82638;BMP280;72318;36.628;-121.932;2023-10-19T10:38:50;101070.84;;;17.90
82638;BMP280;72318;36.628;-121.932;2023-10-19T10:41:24;101065.03;;;17.50
82638;BMP280;72318;36.628;-121.932;2023-10-19T10:43:55;101066.66;;;17.82
82638;BMP280;72318;36.628;-121.932;2023-10-19T10:46:26;101064.75;;;17.82
82638;BMP280;72318;36.628;-121.932;2023-10-19T10:48:56;101061.22;;;17.85
82638;BMP280;72318;36.628;-121.932;2023-10-19T10:51:26;101055.28;;;17.98
82638;BMP280;72318;36.628;-121.932;2023-10-19T10:53:57;101053.66;;;18.04
82638;BMP280;72318;36.628;-121.932;2023-10-19T10:56:24;101051.31;;;17.68
82638;BMP280;72318;36.628;-121.932;2023-10-19T10:58:50;101049.19;;;17.86
82638;BMP280;72318;36.628;-121.932;2023-10-19T11:01:31;101043.22;;;18.33
82638;BMP280;72318;36.628;-121.932;2023-10-19T11:04:10;101045.41;;;17.77
82638;BMP280;72318;36.628;-121.932;2023-10-19T11:06:50;101048.66;;;17.98
82638;BMP280;72318;36.628;-121.932;2023-10-19T11:09:17;101045.72;;;17.86
82638;BMP280;72318;36.628;-121.932;2023-10-19T11:11:47;101044.84;;;17.58
82638;BMP280;72318;36.628;-121.932;2023-10-19T11:14:20;101050.31;;;17.51
82638;BMP280;72318;36.628;-121.932;2023-10-19T11:16:49;101049.53;;;17.92
82638;BMP280;72318;36.628;-121.932;2023-10-19T11:19:16;101045.03;;;17.37
82638;BMP280;72318;36.628;-121.932;2023-10-19T11:21:55;101046.13;;;17.43
82638;BMP280;72318;36.628;-121.932;2023-10-19T11:24:25;101047.13;;;17.15
82638;BMP280;72318;36.628;-121.932;2023-10-19T11:26:52;101043.22;;;17.64
82638;BMP280;72318;36.628;-121.932;2023-10-19T11:29:18;101047.50;;;18.00
82638;BMP280;72318;36.628;-121.932;2023-10-19T11:31:57;101052.06;;;17.72
82638;BMP280;72318;36.628;-121.932;2023-10-19T11:34:24;101053.31;;;17.64
82638;BMP280;72318;36.628;-121.932;2023-10-19T11:36:54;101055.16;;;17.29
82638;BMP280;72318;36.628;-121.932;2023-10-19T11:39:28;101053.00;;;17.55
82638;BMP280;72318;36.628;-121.932;2023-10-19T11:41:54;101052.22;;;17.06
82638;BMP280;72318;36.628;-121.932;2023-10-19T11:44:21;101052.19;;;17.58
82638;BMP280;72318;36.628;-121.932;2023-10-19T11:46:48;101045.34;;;17.46
82638;BMP280;72318;36.628;-121.932;2023-10-19T11:49:14;101052.97;;;17.07
82638;BMP280;72318;36.628;-121.932;2023-10-19T11:51:41;101046.19;;;17.36
82638;BMP280;72318;36.628;-121.932;2023-10-19T11:54:07;101049.41;;;17.24
82638;BMP280;72318;36.628;-121.932;2023-10-19T11:56:33;101045.41;;;17.36
82638;BMP280;72318;36.628;-121.932;2023-10-19T11:59:00;101044.88;;;17.55
82638;BMP280;72318;36.628;-121.932;2023-10-19T12:01:27;101043.94;;;17.27
82638;BMP280;72318;36.628;-121.932;2023-10-19T12:03:55;101044.97;;;17.44
82638;BMP280;72318;36.628;-121.932;2023-10-19T12:06:21;101045.97;;;17.61
82638;BMP280;72318;36.628;-121.932;2023-10-19T12:08:49;101053.00;;;17.03
82638;BMP280;72318;36.628;-121.932;2023-10-19T12:11:15;101045.13;;;17.26
82638;BMP280;72318;36.628;-121.932;2023-10-19T12:13:43;101048.59;;;17.27
82638;BMP280;72318;36.628;-121.932;2023-10-19T12:16:10;101044.50;;;17.05
82638;BMP280;72318;36.628;-121.932;2023-10-19T12:18:41;101038.97;;;17.22
82638;BMP280;72318;36.628;-121.932;2023-10-19T12:21:10;101044.50;;;17.01
82638;BMP280;72318;36.628;-121.932;2023-10-19T12:23:43;101038.97;;;17.22
82638;BMP280;72318;36.628;-121.932;2023-10-19T12:26:10;101033.28;;;17.51
82638;BMP280;72318;36.628;-121.932;2023-10-19T12:28:41;101034.88;;;17.48
82638;BMP280;72318;36.628;-121.932;2023-10-19T12:31:08;101030.47;;;17.17
82638;BMP280;72318;36.628;-121.932;2023-10-19T12:33:35;101028.06;;;17.29
82638;BMP280;72318;36.628;-121.932;2023-10-19T12:36:02;101037.13;;;17.05
82638;BMP280;72318;36.628;-121.932;2023-10-19T12:38:47;101028.13;;;17.22
82638;BMP280;72318;36.628;-121.932;2023-10-19T12:41:13;101035.72;;;17.34
82638;BMP280;72318;36.628;-121.932;2023-10-19T12:43:40;101039.19;;;17.42
82638;BMP280;72318;36.628;-121.932;2023-10-19T12:46:07;101034.47;;;17.01
82638;BMP280;72318;36.628;-121.932;2023-10-19T12:48:35;101040.19;;;17.11
82638;BMP280;72318;36.628;-121.932;2023-10-19T12:51:04;101036.94;;;17.33
82638;BMP280;72318;36.628;-121.932;2023-10-19T12:53:34;101040.78;;;17.36
82638;BMP280;72318;36.628;-121.932;2023-10-19T12:56:03;101045.34;;;16.91
82638;BMP280;72318;36.628;-121.932;2023-10-19T12:58:29;101047.97;;;17.09
82638;BMP280;72318;36.628;-121.932;2023-10-19T13:00:55;101044.97;;;16.89
82638;BMP280;72318;36.628;-121.932;2023-10-19T13:03:22;101046.56;;;16.83
82638;BMP280;72318;36.628;-121.932;2023-10-19T13:05:49;101058.44;;;17.03
82638;BMP280;72318;36.628;-121.932;2023-10-19T13:08:15;101064.88;;;17.23
82638;BMP280;72318;36.628;-121.932;2023-10-19T13:10:43;101068.84;;;17.98
82638;BMP280;72318;36.628;-121.932;2023-10-19T13:13:14;101080.88;;;17.04
82638;BMP280;72318;36.628;-121.932;2023-10-19T13:15:45;101081.66;;;17.00
82638;BMP280;72318;36.628;-121.932;2023-10-19T13:18:14;101077.50;;;16.85
82638;BMP280;72318;36.628;-121.932;2023-10-19T13:20:46;101077.84;;;16.84
82638;BMP280;72318;36.628;-121.932;2023-10-19T13:23:14;101089.31;;;17.13
82638;BMP280;72318;36.628;-121.932;2023-10-19T13:25:47;101094.03;;;16.98
82638;BMP280;72318;36.628;-121.932;2023-10-19T13:28:23;101091.41;;;16.87
82638;BMP280;72318;36.628;-121.932;2023-10-19T13:30:51;101101.50;;;17.42
82638;BMP280;72318;36.628;-121.932;2023-10-19T13:33:22;101094.84;;;16.95
82638;BMP280;72318;36.628;-121.932;2023-10-19T13:35:50;101097.34;;;17.27
82638;BMP280;72318;36.628;-121.932;2023-10-19T13:38:18;101101.34;;;17.05
82638;BMP280;72318;36.628;-121.932;2023-10-19T13:40:45;101097.25;;;16.75
82638;BMP280;72318;36.628;-121.932;2023-10-19T13:43:13;101103.03;;;16.74
82638;BMP280;72318;36.628;-121.932;2023-10-19T13:45:40;101100.75;;;16.76